Portada
METAR-TAF:

METAR-TAF

Aeroports :

Novosibirsk, Rússia

latitud: 55-01N, longitud: 082-38E, altitud: 111 m

METAR: manca

Hora: 11:41 (04:41 UTC)

Pronòstic

L'informe es va fer fa 2 hores i 41 minuts, a les 02:00 UTC
Pronòstic vàlid del 15 a les 03 UTC al 16 a les 03 UTC
Vent 16 kt del Sud amb ràfegues de 27 kt
Visibilitat 10 km o més
Cel ennuvolat a una alçada de 2000 ft, Cumulonimbus.
Temporalment
l' 15 a les 05 UTC al 15 a les 15 UTC
Vent 23 kt del Sud-Oest amb ràfegues de 33 kt
Cel ennuvolat a una alçada de 1100 ft, Cumulonimbus.
xàfecs de pluja
Temporalment
l' 15 a les 18 UTC al 15 a les 24 UTC
Visibilitat: 3100 m
Cel ennuvolat a una alçada de 1100 ft, Cumulonimbus.
xàfecs de pluja

TAF: UNNT 150200Z 1503/1603 18008G14MPS 9999 BKN020CB TEMPO 1505/1515 23012G17MPS -SHRA BKN011CB TEMPO 1518/1524 3100 -SHRA BKN011CB

Observacions i pronòstics meteorològics de més de 4000 aeroports (METAR i TAF).

Les estacions disponibles són els punts grocs i vermells al mapa.

Posi el ratolí al punt desitjat per veure el nom de l'estació.

Feu clic per veure les observacions i els pronòstics meteorològics.

Per canviar el mapa: feu clic els botons verds amb una creu de color negre per apropar; al botó verd amb un guió per allunyar la imatge; o en les fletxes verdes per a mapes adjacents.


METAR-TAF: